sensor_id;sensor_type;location;lat;lon;timestamp;P1;durP1;ratioP1;P2;durP2;ratioP2
38715;SDS011;24833;49.324;8.694;2023-05-28T00:01:20;5.25;;;2.00;;
38715;SDS011;24833;49.324;8.694;2023-05-28T00:04:07;6.07;;;2.30;;
38715;SDS011;24833;49.324;8.694;2023-05-28T00:06:53;2.97;;;2.05;;
38715;SDS011;24833;49.324;8.694;2023-05-28T00:09:40;7.63;;;2.13;;
38715;SDS011;24833;49.324;8.694;2023-05-28T00:12:09;4.47;;;2.08;;
38715;SDS011;24833;49.324;8.694;2023-05-28T00:14:36;3.92;;;1.83;;
38715;SDS011;24833;49.324;8.694;2023-05-28T00:17:03;5.10;;;2.17;;
38715;SDS011;24833;49.324;8.694;2023-05-28T00:19:30;3.45;;;2.03;;
38715;SDS011;24833;49.324;8.694;2023-05-28T00:21:57;3.92;;;2.10;;
38715;SDS011;24833;49.324;8.694;2023-05-28T00:24:24;4.00;;;2.20;;
38715;SDS011;24833;49.324;8.694;2023-05-28T00:26:52;6.78;;;2.53;;
38715;SDS011;24833;49.324;8.694;2023-05-28T00:29:19;3.65;;;2.13;;
38715;SDS011;24833;49.324;8.694;2023-05-28T00:31:46;5.40;;;2.55;;
38715;SDS011;24833;49.324;8.694;2023-05-28T00:34:13;4.15;;;2.22;;
38715;SDS011;24833;49.324;8.694;2023-05-28T00:36:40;1.92;;;1.70;;
38715;SDS011;24833;49.324;8.694;2023-05-28T00:39:08;4.82;;;2.50;;
38715;SDS011;24833;49.324;8.694;2023-05-28T00:41:35;3.50;;;1.98;;
38715;SDS011;24833;49.324;8.694;2023-05-28T00:44:02;4.32;;;2.33;;
38715;SDS011;24833;49.324;8.694;2023-05-28T00:46:31;4.68;;;2.30;;
38715;SDS011;24833;49.324;8.694;2023-05-28T00:48:59;7.43;;;2.20;;
38715;SDS011;24833;49.324;8.694;2023-05-28T00:51:26;5.30;;;2.30;;
38715;SDS011;24833;49.324;8.694;2023-05-28T00:53:54;3.17;;;2.25;;
38715;SDS011;24833;49.324;8.694;2023-05-28T00:56:21;2.80;;;1.73;;
38715;SDS011;24833;49.324;8.694;2023-05-28T00:58:50;5.45;;;2.40;;
38715;SDS011;24833;49.324;8.694;2023-05-28T01:01:18;3.63;;;2.47;;
38715;SDS011;24833;49.324;8.694;2023-05-28T01:03:46;2.92;;;2.10;;
38715;SDS011;24833;49.324;8.694;2023-05-28T01:06:14;3.67;;;2.10;;
38715;SDS011;24833;49.324;8.694;2023-05-28T01:08:41;3.28;;;2.20;;
38715;SDS011;24833;49.324;8.694;2023-05-28T01:11:12;3.28;;;2.17;;
38715;SDS011;24833;49.324;8.694;2023-05-28T01:13:42;3.45;;;2.13;;
38715;SDS011;24833;49.324;8.694;2023-05-28T01:16:12;7.17;;;2.57;;
38715;SDS011;24833;49.324;8.694;2023-05-28T01:18:40;5.93;;;2.63;;
38715;SDS011;24833;49.324;8.694;2023-05-28T01:21:11;8.07;;;2.70;;
38715;SDS011;24833;49.324;8.694;2023-05-28T01:23:40;4.50;;;2.25;;
38715;SDS011;24833;49.324;8.694;2023-05-28T01:26:11;5.15;;;2.30;;
38715;SDS011;24833;49.324;8.694;2023-05-28T01:28:40;7.07;;;2.10;;
38715;SDS011;24833;49.324;8.694;2023-05-28T01:31:12;4.60;;;2.33;;
38715;SDS011;24833;49.324;8.694;2023-05-28T01:33:40;4.05;;;2.17;;
38715;SDS011;24833;49.324;8.694;2023-05-28T01:36:11;2.72;;;2.22;;
38715;SDS011;24833;49.324;8.694;2023-05-28T01:38:45;5.00;;;2.28;;
38715;SDS011;24833;49.324;8.694;2023-05-28T01:41:15;5.57;;;2.20;;
38715;SDS011;24833;49.324;8.694;2023-05-28T01:43:42;4.60;;;2.50;;
38715;SDS011;24833;49.324;8.694;2023-05-28T01:46:12;4.53;;;2.30;;
38715;SDS011;24833;49.324;8.694;2023-05-28T01:48:39;4.55;;;2.25;;
38715;SDS011;24833;49.324;8.694;2023-05-28T01:51:06;4.78;;;2.55;;
38715;SDS011;24833;49.324;8.694;2023-05-28T01:53:33;4.40;;;2.55;;
38715;SDS011;24833;49.324;8.694;2023-05-28T01:56:01;6.03;;;2.22;;
38715;SDS011;24833;49.324;8.694;2023-05-28T01:58:28;4.13;;;2.45;;
38715;SDS011;24833;49.324;8.694;2023-05-28T02:01:30;9.68;;;2.35;;
38715;SDS011;24833;49.324;8.694;2023-05-28T02:03:58;4.10;;;2.20;;
38715;SDS011;24833;49.324;8.694;2023-05-28T02:06:30;3.85;;;2.55;;
38715;SDS011;24833;49.324;8.694;2023-05-28T02:08:59;4.07;;;2.25;;
38715;SDS011;24833;49.324;8.694;2023-05-28T02:11:27;5.18;;;2.28;;
38715;SDS011;24833;49.324;8.694;2023-05-28T02:13:55;4.20;;;2.15;;
38715;SDS011;24833;49.324;8.694;2023-05-28T02:16:24;5.30;;;2.55;;
38715;SDS011;24833;49.324;8.694;2023-05-28T02:18:53;3.85;;;2.25;;
38715;SDS011;24833;49.324;8.694;2023-05-28T02:21:22;7.70;;;2.90;;
38715;SDS011;24833;49.324;8.694;2023-05-28T02:23:49;5.38;;;2.45;;
38715;SDS011;24833;49.324;8.694;2023-05-28T02:26:17;4.57;;;2.47;;
38715;SDS011;24833;49.324;8.694;2023-05-28T02:28:44;3.65;;;2.00;;
38715;SDS011;24833;49.324;8.694;2023-05-28T02:31:13;3.42;;;2.20;;
38715;SDS011;24833;49.324;8.694;2023-05-28T02:33:43;5.90;;;2.42;;
38715;SDS011;24833;49.324;8.694;2023-05-28T02:36:12;3.67;;;2.15;;
38715;SDS011;24833;49.324;8.694;2023-05-28T02:38:40;3.45;;;2.22;;
38715;SDS011;24833;49.324;8.694;2023-05-28T02:41:09;4.22;;;2.30;;
38715;SDS011;24833;49.324;8.694;2023-05-28T02:43:38;4.07;;;2.17;;
38715;SDS011;24833;49.324;8.694;2023-05-28T02:46:07;4.82;;;2.80;;
38715;SDS011;24833;49.324;8.694;2023-05-28T02:48:35;2.47;;;2.03;;
38715;SDS011;24833;49.324;8.694;2023-05-28T02:51:03;3.40;;;2.33;;
38715;SDS011;24833;49.324;8.694;2023-05-28T02:54:03;2.72;;;2.20;;
38715;SDS011;24833;49.324;8.694;2023-05-28T02:56:30;6.10;;;2.53;;
38715;SDS011;24833;49.324;8.694;2023-05-28T02:58:57;5.55;;;2.50;;
38715;SDS011;24833;49.324;8.694;2023-05-28T03:01:24;3.83;;;2.25;;
38715;SDS011;24833;49.324;8.694;2023-05-28T03:03:54;4.37;;;2.40;;
38715;SDS011;24833;49.324;8.694;2023-05-28T03:06:21;4.30;;;2.40;;
38715;SDS011;24833;49.324;8.694;2023-05-28T03:08:53;3.55;;;2.17;;
38715;SDS011;24833;49.324;8.694;2023-05-28T03:11:21;3.35;;;2.25;;
38715;SDS011;24833;49.324;8.694;2023-05-28T03:13:49;5.32;;;2.38;;
38715;SDS011;24833;49.324;8.694;2023-05-28T03:16:16;4.10;;;2.30;;
38715;SDS011;24833;49.324;8.694;2023-05-28T03:18:44;6.18;;;3.10;;
38715;SDS011;24833;49.324;8.694;2023-05-28T03:21:12;7.38;;;2.50;;
38715;SDS011;24833;49.324;8.694;2023-05-28T03:23:40;3.85;;;2.33;;
38715;SDS011;24833;49.324;8.694;2023-05-28T03:28:48;4.55;;;2.45;;
38715;SDS011;24833;49.324;8.694;2023-05-28T03:31:42;4.95;;;2.28;;
38715;SDS011;24833;49.324;8.694;2023-05-28T03:34:13;3.67;;;2.17;;
38715;SDS011;24833;49.324;8.694;2023-05-28T03:36:41;5.25;;;2.58;;
38715;SDS011;24833;49.324;8.694;2023-05-28T03:39:10;3.78;;;2.33;;
38715;SDS011;24833;49.324;8.694;2023-05-28T03:41:38;3.95;;;2.00;;
38715;SDS011;24833;49.324;8.694;2023-05-28T03:44:08;5.00;;;2.55;;
38715;SDS011;24833;49.324;8.694;2023-05-28T03:46:35;4.30;;;2.58;;
38715;SDS011;24833;49.324;8.694;2023-05-28T03:49:02;4.75;;;2.85;;
38715;SDS011;24833;49.324;8.694;2023-05-28T03:51:29;4.93;;;2.50;;
38715;SDS011;24833;49.324;8.694;2023-05-28T03:53:58;5.70;;;2.67;;
38715;SDS011;24833;49.324;8.694;2023-05-28T03:56:25;4.63;;;2.45;;
38715;SDS011;24833;49.324;8.694;2023-05-28T03:58:52;3.30;;;1.95;;
38715;SDS011;24833;49.324;8.694;2023-05-28T04:01:19;5.97;;;2.38;;
38715;SDS011;24833;49.324;8.694;2023-05-28T04:03:48;4.25;;;2.50;;
38715;SDS011;24833;49.324;8.694;2023-05-28T04:06:15;3.88;;;2.15;;
38715;SDS011;24833;49.324;8.694;2023-05-28T04:08:43;4.63;;;2.40;;
38715;SDS011;24833;49.324;8.694;2023-05-28T04:11:10;4.97;;;2.10;;
38715;SDS011;24833;49.324;8.694;2023-05-28T04:13:37;3.10;;;2.15;;
38715;SDS011;24833;49.324;8.694;2023-05-28T04:16:04;3.58;;;2.25;;
38715;SDS011;24833;49.324;8.694;2023-05-28T04:18:33;3.70;;;2.30;;
38715;SDS011;24833;49.324;8.694;2023-05-28T04:21:01;2.72;;;1.98;;
38715;SDS011;24833;49.324;8.694;2023-05-28T04:23:29;4.63;;;2.30;;
38715;SDS011;24833;49.324;8.694;2023-05-28T04:25:57;4.00;;;2.28;;
38715;SDS011;24833;49.324;8.694;2023-05-28T04:28:24;4.38;;;3.00;;
38715;SDS011;24833;49.324;8.694;2023-05-28T04:30:54;4.32;;;2.25;;
38715;SDS011;24833;49.324;8.694;2023-05-28T04:33:21;6.97;;;2.70;;
38715;SDS011;24833;49.324;8.694;2023-05-28T04:35:48;4.47;;;2.85;;
38715;SDS011;24833;49.324;8.694;2023-05-28T04:38:17;6.28;;;2.72;;
38715;SDS011;24833;49.324;8.694;2023-05-28T04:40:44;4.20;;;2.83;;
38715;SDS011;24833;49.324;8.694;2023-05-28T04:43:12;8.80;;;3.30;;
38715;SDS011;24833;49.324;8.694;2023-05-28T04:45:41;6.07;;;3.28;;
38715;SDS011;24833;49.324;8.694;2023-05-28T04:48:09;4.63;;;3.35;;
38715;SDS011;24833;49.324;8.694;2023-05-28T04:50:37;5.38;;;3.45;;
38715;SDS011;24833;49.324;8.694;2023-05-28T04:53:04;6.80;;;3.28;;
38715;SDS011;24833;49.324;8.694;2023-05-28T04:55:32;8.10;;;3.53;;
38715;SDS011;24833;49.324;8.694;2023-05-28T04:57:59;6.72;;;3.30;;
38715;SDS011;24833;49.324;8.694;2023-05-28T05:00:26;6.47;;;3.45;;
38715;SDS011;24833;49.324;8.694;2023-05-28T05:02:56;6.53;;;3.65;;
38715;SDS011;24833;49.324;8.694;2023-05-28T05:05:24;7.38;;;3.97;;
38715;SDS011;24833;49.324;8.694;2023-05-28T05:07:51;6.43;;;3.67;;
38715;SDS011;24833;49.324;8.694;2023-05-28T05:10:18;6.97;;;3.70;;
38715;SDS011;24833;49.324;8.694;2023-05-28T05:12:48;5.43;;;3.17;;
38715;SDS011;24833;49.324;8.694;2023-05-28T05:15:15;5.88;;;3.53;;
38715;SDS011;24833;49.324;8.694;2023-05-28T05:17:42;5.15;;;3.47;;
38715;SDS011;24833;49.324;8.694;2023-05-28T05:20:09;7.00;;;3.80;;
38715;SDS011;24833;49.324;8.694;2023-05-28T05:22:36;5.32;;;3.65;;
38715;SDS011;24833;49.324;8.694;2023-05-28T05:25:04;6.97;;;3.75;;
38715;SDS011;24833;49.324;8.694;2023-05-28T05:27:36;7.78;;;3.88;;
38715;SDS011;24833;49.324;8.694;2023-05-28T05:30:03;4.75;;;3.50;;
38715;SDS011;24833;49.324;8.694;2023-05-28T05:32:32;5.82;;;3.58;;
38715;SDS011;24833;49.324;8.694;2023-05-28T05:34:59;5.70;;;3.30;;
38715;SDS011;24833;49.324;8.694;2023-05-28T05:37:44;6.93;;;3.47;;
38715;SDS011;24833;49.324;8.694;2023-05-28T05:40:47;7.18;;;3.75;;
38715;SDS011;24833;49.324;8.694;2023-05-28T05:43:33;5.85;;;3.30;;
38715;SDS011;24833;49.324;8.694;2023-05-28T05:46:00;4.70;;;3.30;;
38715;SDS011;24833;49.324;8.694;2023-05-28T05:48:27;5.72;;;3.45;;
38715;SDS011;24833;49.324;8.694;2023-05-28T05:50:55;4.30;;;3.22;;
38715;SDS011;24833;49.324;8.694;2023-05-28T05:53:22;5.80;;;3.63;;
38715;SDS011;24833;49.324;8.694;2023-05-28T05:55:50;5.63;;;3.63;;
38715;SDS011;24833;49.324;8.694;2023-05-28T05:58:18;4.13;;;3.17;;
38715;SDS011;24833;49.324;8.694;2023-05-28T06:00:45;5.03;;;3.45;;
38715;SDS011;24833;49.324;8.694;2023-05-28T06:03:14;8.02;;;3.80;;
38715;SDS011;24833;49.324;8.694;2023-05-28T06:06:02;7.13;;;3.83;;
38715;SDS011;24833;49.324;8.694;2023-05-28T06:08:52;7.38;;;3.60;;
38715;SDS011;24833;49.324;8.694;2023-05-28T06:11:32;6.93;;;3.90;;
38715;SDS011;24833;49.324;8.694;2023-05-28T06:13:59;6.55;;;3.63;;
38715;SDS011;24833;49.324;8.694;2023-05-28T06:16:27;6.35;;;3.25;;
38715;SDS011;24833;49.324;8.694;2023-05-28T06:18:55;5.68;;;3.25;;
38715;SDS011;24833;49.324;8.694;2023-05-28T06:21:22;6.75;;;3.80;;
38715;SDS011;24833;49.324;8.694;2023-05-28T06:23:50;5.70;;;3.97;;
38715;SDS011;24833;49.324;8.694;2023-05-28T06:26:17;5.40;;;3.70;;
38715;SDS011;24833;49.324;8.694;2023-05-28T06:28:44;10.38;;;3.80;;
38715;SDS011;24833;49.324;8.694;2023-05-28T06:31:11;4.60;;;3.28;;
38715;SDS011;24833;49.324;8.694;2023-05-28T06:33:39;4.85;;;2.97;;
38715;SDS011;24833;49.324;8.694;2023-05-28T06:36:06;5.28;;;3.22;;
38715;SDS011;24833;49.324;8.694;2023-05-28T06:38:34;5.80;;;3.42;;
38715;SDS011;24833;49.324;8.694;2023-05-28T06:41:01;6.85;;;3.28;;
38715;SDS011;24833;49.324;8.694;2023-05-28T06:43:34;4.60;;;3.33;;
38715;SDS011;24833;49.324;8.694;2023-05-28T06:46:24;5.93;;;3.20;;
38715;SDS011;24833;49.324;8.694;2023-05-28T06:48:55;5.80;;;3.38;;
38715;SDS011;24833;49.324;8.694;2023-05-28T06:51:23;4.32;;;2.97;;
38715;SDS011;24833;49.324;8.694;2023-05-28T06:53:50;6.80;;;3.75;;
38715;SDS011;24833;49.324;8.694;2023-05-28T06:56:22;6.22;;;2.92;;
38715;SDS011;24833;49.324;8.694;2023-05-28T06:59:21;5.50;;;2.70;;
38715;SDS011;24833;49.324;8.694;2023-05-28T07:01:48;5.57;;;3.38;;
38715;SDS011;24833;49.324;8.694;2023-05-28T07:04:34;7.60;;;3.30;;
38715;SDS011;24833;49.324;8.694;2023-05-28T07:07:08;5.70;;;2.85;;
38715;SDS011;24833;49.324;8.694;2023-05-28T07:09:35;3.92;;;2.47;;
38715;SDS011;24833;49.324;8.694;2023-05-28T07:12:03;7.00;;;3.22;;
38715;SDS011;24833;49.324;8.694;2023-05-28T07:14:32;7.47;;;2.42;;
38715;SDS011;24833;49.324;8.694;2023-05-28T07:16:59;4.85;;;2.63;;
38715;SDS011;24833;49.324;8.694;2023-05-28T07:19:26;5.85;;;2.35;;
38715;SDS011;24833;49.324;8.694;2023-05-28T07:21:54;6.28;;;2.50;;
38715;SDS011;24833;49.324;8.694;2023-05-28T07:24:21;4.75;;;2.80;;
38715;SDS011;24833;49.324;8.694;2023-05-28T07:26:48;3.25;;;2.55;;
38715;SDS011;24833;49.324;8.694;2023-05-28T07:29:17;5.10;;;2.95;;
38715;SDS011;24833;49.324;8.694;2023-05-28T07:31:45;5.07;;;3.08;;
38715;SDS011;24833;49.324;8.694;2023-05-28T07:34:13;4.45;;;3.03;;
38715;SDS011;24833;49.324;8.694;2023-05-28T07:36:42;6.50;;;3.05;;
38715;SDS011;24833;49.324;8.694;2023-05-28T07:39:12;5.05;;;2.45;;
38715;SDS011;24833;49.324;8.694;2023-05-28T07:41:39;3.95;;;2.35;;
38715;SDS011;24833;49.324;8.694;2023-05-28T07:44:22;4.43;;;2.92;;
38715;SDS011;24833;49.324;8.694;2023-05-28T07:46:49;4.82;;;3.10;;
38715;SDS011;24833;49.324;8.694;2023-05-28T07:49:31;5.72;;;2.97;;
38715;SDS011;24833;49.324;8.694;2023-05-28T07:51:58;3.92;;;2.75;;
38715;SDS011;24833;49.324;8.694;2023-05-28T07:54:29;5.00;;;2.97;;
38715;SDS011;24833;49.324;8.694;2023-05-28T07:56:57;6.07;;;2.58;;
38715;SDS011;24833;49.324;8.694;2023-05-28T07:59:35;3.83;;;2.45;;
38715;SDS011;24833;49.324;8.694;2023-05-28T08:02:03;4.50;;;2.63;;
38715;SDS011;24833;49.324;8.694;2023-05-28T08:04:31;4.68;;;2.70;;
38715;SDS011;24833;49.324;8.694;2023-05-28T08:06:59;2.97;;;1.98;;
38715;SDS011;24833;49.324;8.694;2023-05-28T08:09:28;4.18;;;2.50;;
38715;SDS011;24833;49.324;8.694;2023-05-28T08:11:57;4.90;;;2.60;;
38715;SDS011;24833;49.324;8.694;2023-05-28T08:14:30;3.30;;;2.10;;
38715;SDS011;24833;49.324;8.694;2023-05-28T08:17:03;5.40;;;2.70;;
38715;SDS011;24833;49.324;8.694;2023-05-28T08:19:38;3.80;;;2.13;;
38715;SDS011;24833;49.324;8.694;2023-05-28T08:22:20;4.43;;;2.53;;
38715;SDS011;24833;49.324;8.694;2023-05-28T08:24:47;5.47;;;2.33;;
38715;SDS011;24833;49.324;8.694;2023-05-28T08:27:14;3.95;;;2.60;;
38715;SDS011;24833;49.324;8.694;2023-05-28T08:29:41;4.97;;;2.70;;
38715;SDS011;24833;49.324;8.694;2023-05-28T08:32:08;4.28;;;2.53;;
38715;SDS011;24833;49.324;8.694;2023-05-28T08:34:38;5.03;;;2.42;;
38715;SDS011;24833;49.324;8.694;2023-05-28T08:37:06;5.53;;;2.40;;
38715;SDS011;24833;49.324;8.694;2023-05-28T08:39:57;4.15;;;2.40;;
38715;SDS011;24833;49.324;8.694;2023-05-28T08:42:24;3.17;;;1.90;;
38715;SDS011;24833;49.324;8.694;2023-05-28T08:44:54;3.60;;;2.70;;
38715;SDS011;24833;49.324;8.694;2023-05-28T08:47:24;5.47;;;2.53;;
38715;SDS011;24833;49.324;8.694;2023-05-28T08:50:05;4.35;;;2.72;;
38715;SDS011;24833;49.324;8.694;2023-05-28T08:52:49;4.63;;;2.45;;
38715;SDS011;24833;49.324;8.694;2023-05-28T08:55:18;5.57;;;2.33;;
38715;SDS011;24833;49.324;8.694;2023-05-28T08:57:52;4.78;;;2.38;;
38715;SDS011;24833;49.324;8.694;2023-05-28T09:00:20;4.13;;;2.90;;
38715;SDS011;24833;49.324;8.694;2023-05-28T09:03:07;4.28;;;2.53;;
38715;SDS011;24833;49.324;8.694;2023-05-28T09:05:36;4.68;;;2.60;;
38715;SDS011;24833;49.324;8.694;2023-05-28T09:08:05;4.43;;;2.58;;
38715;SDS011;24833;49.324;8.694;2023-05-28T09:13:03;3.65;;;2.03;;
38715;SDS011;24833;49.324;8.694;2023-05-28T09:15:34;6.85;;;2.70;;
38715;SDS011;24833;49.324;8.694;2023-05-28T09:18:05;6.82;;;2.72;;
38715;SDS011;24833;49.324;8.694;2023-05-28T09:20:33;3.50;;;2.28;;
38715;SDS011;24833;49.324;8.694;2023-05-28T09:23:01;4.93;;;2.83;;
38715;SDS011;24833;49.324;8.694;2023-05-28T09:25:51;3.55;;;2.30;;
38715;SDS011;24833;49.324;8.694;2023-05-28T09:28:27;4.00;;;2.30;;
38715;SDS011;24833;49.324;8.694;2023-05-28T09:31:04;6.75;;;2.40;;
38715;SDS011;24833;49.324;8.694;2023-05-28T09:33:32;6.80;;;2.40;;
38715;SDS011;24833;49.324;8.694;2023-05-28T09:36:00;5.38;;;2.60;;
38715;SDS011;24833;49.324;8.694;2023-05-28T09:38:38;6.35;;;2.90;;
38715;SDS011;24833;49.324;8.694;2023-05-28T09:41:20;3.35;;;2.50;;
38715;SDS011;24833;49.324;8.694;2023-05-28T09:43:59;4.40;;;2.53;;
38715;SDS011;24833;49.324;8.694;2023-05-28T09:48:57;3.33;;;2.45;;
38715;SDS011;24833;49.324;8.694;2023-05-28T09:51:26;5.00;;;2.78;;
38715;SDS011;24833;49.324;8.694;2023-05-28T09:53:59;6.80;;;3.30;;
38715;SDS011;24833;49.324;8.694;2023-05-28T09:56:30;3.30;;;2.60;;
38715;SDS011;24833;49.324;8.694;2023-05-28T09:59:02;4.20;;;2.40;;
38715;SDS011;24833;49.324;8.694;2023-05-28T10:01:38;4.72;;;2.58;;
38715;SDS011;24833;49.324;8.694;2023-05-28T10:06:43;4.63;;;2.10;;
38715;SDS011;24833;49.324;8.694;2023-05-28T10:09:12;4.93;;;2.80;;
38715;SDS011;24833;49.324;8.694;2023-05-28T10:11:42;5.32;;;2.92;;
38715;SDS011;24833;49.324;8.694;2023-05-28T10:14:17;4.72;;;2.95;;
38715;SDS011;24833;49.324;8.694;2023-05-28T10:16:45;5.25;;;2.85;;
38715;SDS011;24833;49.324;8.694;2023-05-28T10:19:12;3.90;;;2.80;;
38715;SDS011;24833;49.324;8.694;2023-05-28T10:21:40;6.63;;;2.90;;
38715;SDS011;24833;49.324;8.694;2023-05-28T10:24:07;4.22;;;2.75;;
38715;SDS011;24833;49.324;8.694;2023-05-28T10:26:35;4.80;;;2.53;;
38715;SDS011;24833;49.324;8.694;2023-05-28T10:29:03;3.67;;;2.28;;
38715;SDS011;24833;49.324;8.694;2023-05-28T10:31:33;6.55;;;2.33;;
38715;SDS011;24833;49.324;8.694;2023-05-28T10:34:02;4.65;;;2.17;;
38715;SDS011;24833;49.324;8.694;2023-05-28T10:39:39;3.40;;;1.95;;
38715;SDS011;24833;49.324;8.694;2023-05-28T10:42:08;5.05;;;2.53;;
38715;SDS011;24833;49.324;8.694;2023-05-28T10:47:34;3.78;;;2.30;;
38715;SDS011;24833;49.324;8.694;2023-05-28T10:58:34;5.45;;;2.40;;
38715;SDS011;24833;49.324;8.694;2023-05-28T11:03:43;6.72;;;2.58;;
38715;SDS011;24833;49.324;8.694;2023-05-28T11:06:12;3.33;;;2.45;;
38715;SDS011;24833;49.324;8.694;2023-05-28T11:08:41;3.60;;;2.30;;
38715;SDS011;24833;49.324;8.694;2023-05-28T11:11:14;4.50;;;2.45;;
38715;SDS011;24833;49.324;8.694;2023-05-28T11:13:47;4.32;;;2.50;;
38715;SDS011;24833;49.324;8.694;2023-05-28T11:16:15;2.90;;;2.17;;
38715;SDS011;24833;49.324;8.694;2023-05-28T11:21:29;4.85;;;2.20;;
38715;SDS011;24833;49.324;8.694;2023-05-28T11:23:58;5.20;;;2.45;;
38715;SDS011;24833;49.324;8.694;2023-05-28T11:26:30;4.32;;;2.63;;
38715;SDS011;24833;49.324;8.694;2023-05-28T11:28:59;3.88;;;2.42;;
38715;SDS011;24833;49.324;8.694;2023-05-28T11:31:28;3.83;;;2.50;;
38715;SDS011;24833;49.324;8.694;2023-05-28T11:33:56;4.30;;;2.65;;
38715;SDS011;24833;49.324;8.694;2023-05-28T11:36:24;5.43;;;2.50;;
38715;SDS011;24833;49.324;8.694;2023-05-28T11:39:01;4.45;;;2.65;;
38715;SDS011;24833;49.324;8.694;2023-05-28T11:41:30;5.00;;;2.80;;
38715;SDS011;24833;49.324;8.694;2023-05-28T11:43:58;5.75;;;2.80;;
38715;SDS011;24833;49.324;8.694;2023-05-28T11:46:25;3.38;;;2.65;;
38715;SDS011;24833;49.324;8.694;2023-05-28T11:48:52;4.75;;;2.72;;
38715;SDS011;24833;49.324;8.694;2023-05-28T11:51:20;14.45;;;3.95;;
38715;SDS011;24833;49.324;8.694;2023-05-28T11:53:47;5.75;;;2.92;;
38715;SDS011;24833;49.324;8.694;2023-05-28T11:56:14;9.48;;;2.95;;
38715;SDS011;24833;49.324;8.694;2023-05-28T11:58:45;4.93;;;2.70;;
38715;SDS011;24833;49.324;8.694;2023-05-28T12:01:15;4.60;;;2.75;;
38715;SDS011;24833;49.324;8.694;2023-05-28T12:03:42;6.13;;;3.15;;
38715;SDS011;24833;49.324;8.694;2023-05-28T12:06:11;6.90;;;3.00;;
38715;SDS011;24833;49.324;8.694;2023-05-28T12:08:48;3.95;;;2.40;;
38715;SDS011;24833;49.324;8.694;2023-05-28T12:11:15;4.80;;;2.33;;
38715;SDS011;24833;49.324;8.694;2023-05-28T12:13:42;4.15;;;2.20;;
38715;SDS011;24833;49.324;8.694;2023-05-28T12:16:09;4.75;;;2.75;;
38715;SDS011;24833;49.324;8.694;2023-05-28T12:18:39;3.00;;;2.50;;
38715;SDS011;24833;49.324;8.694;2023-05-28T12:21:13;5.00;;;2.95;;
38715;SDS011;24833;49.324;8.694;2023-05-28T12:23:47;7.00;;;2.80;;
38715;SDS011;24833;49.324;8.694;2023-05-28T12:26:14;4.40;;;2.75;;
38715;SDS011;24833;49.324;8.694;2023-05-28T12:28:42;4.28;;;2.70;;
38715;SDS011;24833;49.324;8.694;2023-05-28T12:31:09;5.15;;;2.50;;
38715;SDS011;24833;49.324;8.694;2023-05-28T12:33:36;3.78;;;2.38;;
38715;SDS011;24833;49.324;8.694;2023-05-28T12:36:04;3.53;;;2.88;;
38715;SDS011;24833;49.324;8.694;2023-05-28T12:38:31;4.35;;;2.67;;
38715;SDS011;24833;49.324;8.694;2023-05-28T12:40:58;5.93;;;2.58;;
38715;SDS011;24833;49.324;8.694;2023-05-28T12:43:26;3.67;;;2.75;;
38715;SDS011;24833;49.324;8.694;2023-05-28T12:45:53;2.83;;;2.45;;
38715;SDS011;24833;49.324;8.694;2023-05-28T12:48:20;3.83;;;2.85;;
38715;SDS011;24833;49.324;8.694;2023-05-28T12:50:47;5.85;;;2.60;;
38715;SDS011;24833;49.324;8.694;2023-05-28T12:53:15;5.05;;;2.70;;
38715;SDS011;24833;49.324;8.694;2023-05-28T12:55:42;4.93;;;2.33;;
38715;SDS011;24833;49.324;8.694;2023-05-28T12:58:10;3.60;;;2.70;;
38715;SDS011;24833;49.324;8.694;2023-05-28T13:00:37;3.85;;;2.30;;
38715;SDS011;24833;49.324;8.694;2023-05-28T13:03:04;5.07;;;2.40;;
38715;SDS011;24833;49.324;8.694;2023-05-28T13:05:32;3.30;;;2.45;;
38715;SDS011;24833;49.324;8.694;2023-05-28T13:08:00;5.43;;;2.45;;
38715;SDS011;24833;49.324;8.694;2023-05-28T13:10:28;6.78;;;2.40;;
38715;SDS011;24833;49.324;8.694;2023-05-28T13:12:56;4.13;;;2.28;;
38715;SDS011;24833;49.324;8.694;2023-05-28T13:15:23;3.58;;;2.40;;
38715;SDS011;24833;49.324;8.694;2023-05-28T13:17:50;3.38;;;2.72;;
38715;SDS011;24833;49.324;8.694;2023-05-28T13:20:17;4.05;;;2.55;;
38715;SDS011;24833;49.324;8.694;2023-05-28T13:22:45;6.10;;;3.03;;
38715;SDS011;24833;49.324;8.694;2023-05-28T13:25:12;5.22;;;3.25;;
38715;SDS011;24833;49.324;8.694;2023-05-28T13:27:39;4.53;;;2.78;;
38715;SDS011;24833;49.324;8.694;2023-05-28T13:30:07;6.18;;;3.00;;
38715;SDS011;24833;49.324;8.694;2023-05-28T13:32:34;5.15;;;2.67;;
38715;SDS011;24833;49.324;8.694;2023-05-28T13:35:02;7.97;;;3.38;;
38715;SDS011;24833;49.324;8.694;2023-05-28T13:37:32;7.10;;;3.22;;
38715;SDS011;24833;49.324;8.694;2023-05-28T13:39:59;5.63;;;3.42;;
38715;SDS011;24833;49.324;8.694;2023-05-28T13:42:27;5.20;;;2.88;;
38715;SDS011;24833;49.324;8.694;2023-05-28T13:44:57;6.53;;;3.85;;
38715;SDS011;24833;49.324;8.694;2023-05-28T13:47:24;6.72;;;3.17;;
38715;SDS011;24833;49.324;8.694;2023-05-28T13:49:52;7.30;;;3.42;;
38715;SDS011;24833;49.324;8.694;2023-05-28T13:52:19;7.20;;;3.63;;
38715;SDS011;24833;49.324;8.694;2023-05-28T13:54:46;7.80;;;3.47;;
38715;SDS011;24833;49.324;8.694;2023-05-28T13:57:13;9.00;;;4.13;;
38715;SDS011;24833;49.324;8.694;2023-05-28T13:59:40;4.90;;;3.20;;
38715;SDS011;24833;49.324;8.694;2023-05-28T14:02:07;4.47;;;3.38;;
38715;SDS011;24833;49.324;8.694;2023-05-28T14:04:34;5.50;;;3.45;;
38715;SDS011;24833;49.324;8.694;2023-05-28T14:07:01;5.55;;;3.55;;
38715;SDS011;24833;49.324;8.694;2023-05-28T14:09:28;4.53;;;3.33;;
38715;SDS011;24833;49.324;8.694;2023-05-28T14:11:56;8.75;;;3.50;;
38715;SDS011;24833;49.324;8.694;2023-05-28T14:16:53;5.70;;;3.22;;
38715;SDS011;24833;49.324;8.694;2023-05-28T14:19:20;4.78;;;3.42;;
38715;SDS011;24833;49.324;8.694;2023-05-28T14:21:47;5.63;;;3.42;;
38715;SDS011;24833;49.324;8.694;2023-05-28T14:24:14;8.10;;;3.60;;
38715;SDS011;24833;49.324;8.694;2023-05-28T14:26:41;9.10;;;3.95;;
38715;SDS011;24833;49.324;8.694;2023-05-28T14:29:08;6.50;;;3.45;;
38715;SDS011;24833;49.324;8.694;2023-05-28T14:31:35;4.93;;;3.35;;
38715;SDS011;24833;49.324;8.694;2023-05-28T14:34:02;5.32;;;3.75;;
38715;SDS011;24833;49.324;8.694;2023-05-28T14:36:29;5.53;;;3.38;;
38715;SDS011;24833;49.324;8.694;2023-05-28T14:38:58;5.43;;;3.50;;
38715;SDS011;24833;49.324;8.694;2023-05-28T14:41:25;5.45;;;3.90;;
38715;SDS011;24833;49.324;8.694;2023-05-28T14:43:52;6.85;;;3.10;;
38715;SDS011;24833;49.324;8.694;2023-05-28T14:46:19;4.28;;;3.17;;
38715;SDS011;24833;49.324;8.694;2023-05-28T14:48:46;7.07;;;3.83;;
38715;SDS011;24833;49.324;8.694;2023-05-28T14:53:43;5.75;;;3.78;;
38715;SDS011;24833;49.324;8.694;2023-05-28T14:56:11;4.95;;;3.45;;
38715;SDS011;24833;49.324;8.694;2023-05-28T14:58:38;4.55;;;3.40;;
38715;SDS011;24833;49.324;8.694;2023-05-28T15:01:05;9.82;;;4.00;;
38715;SDS011;24833;49.324;8.694;2023-05-28T15:03:32;5.47;;;3.53;;
38715;SDS011;24833;49.324;8.694;2023-05-28T15:05:59;6.38;;;3.20;;
38715;SDS011;24833;49.324;8.694;2023-05-28T15:08:26;7.82;;;4.28;;
38715;SDS011;24833;49.324;8.694;2023-05-28T15:10:53;4.85;;;3.60;;
38715;SDS011;24833;49.324;8.694;2023-05-28T15:13:21;8.32;;;3.70;;
38715;SDS011;24833;49.324;8.694;2023-05-28T15:15:48;4.63;;;3.25;;
38715;SDS011;24833;49.324;8.694;2023-05-28T15:18:15;6.00;;;3.75;;
38715;SDS011;24833;49.324;8.694;2023-05-28T15:20:42;7.25;;;3.85;;
38715;SDS011;24833;49.324;8.694;2023-05-28T15:23:09;6.45;;;3.67;;
38715;SDS011;24833;49.324;8.694;2023-05-28T15:25:36;5.07;;;3.47;;
38715;SDS011;24833;49.324;8.694;2023-05-28T15:28:04;6.28;;;3.75;;
38715;SDS011;24833;49.324;8.694;2023-05-28T15:30:31;6.85;;;3.40;;
38715;SDS011;24833;49.324;8.694;2023-05-28T15:32:59;9.85;;;3.97;;
38715;SDS011;24833;49.324;8.694;2023-05-28T15:35:29;6.53;;;3.67;;
38715;SDS011;24833;49.324;8.694;2023-05-28T15:37:56;4.63;;;3.08;;